Time;durP1;ratioP1;P1;durP2;ratioP2;P2;SDS_P1;SDS_P2;PMS_P1;PMS_P2;Temp;Humidity;BMP_temperature;BMP_pressure;BME280_temperature;BME280_humidity;BME280_pressure;Samples;Min_cycle;Max_cycle;Signal;HPM_P1;HPM_P2
2023/08/29 00:01:24;;;;;;;6.93;3.73;;;12.80;99.90;;;;;;5030904;28;20190;-65
2023/08/29 00:03:51;;;;;;;5.77;3.63;;;12.80;99.90;;;;;;5031488;28;20202;-66
2023/08/29 00:06:17;;;;;;;6.00;3.43;;;12.80;99.90;;;;;;5050165;28;20506;-66
2023/08/29 00:08:42;;;;;;;6.13;3.60;;;12.80;99.90;;;;;;5050408;28;20554;-66
2023/08/29 00:11:08;;;;;;;6.20;3.97;;;12.80;99.90;;;;;;5036782;28;20209;-66
2023/08/29 00:13:34;;;;;;;11.10;4.70;;;12.80;99.90;;;;;;5031516;28;20190;-66
2023/08/29 00:15:59;;;;;;;7.17;4.40;;;12.80;99.90;;;;;;5036161;28;20189;-66
2023/08/29 00:18:25;;;;;;;15.60;3.90;;;12.80;99.90;;;;;;5031966;28;20186;-66
2023/08/29 00:20:51;;;;;;;6.70;3.77;;;12.80;99.90;;;;;;5041295;28;20473;-66
2023/08/29 00:23:17;;;;;;;8.73;4.70;;;12.80;99.90;;;;;;5032467;28;20186;-66
2023/08/29 00:25:43;;;;;;;6.47;3.80;;;12.80;99.90;;;;;;5044379;28;20424;-66
2023/08/29 00:28:10;;;;;;;5.67;3.70;;;12.70;99.90;;;;;;5031590;28;20619;-66
2023/08/29 00:30:37;;;;;;;8.90;4.90;;;12.80;99.90;;;;;;5034439;28;20529;-66
2023/08/29 00:33:04;;;;;;;4.63;3.10;;;12.80;99.90;;;;;;5038549;28;20413;-66
2023/08/29 00:35:29;;;;;;;8.03;4.53;;;12.80;99.90;;;;;;5035243;28;20528;-66
2023/08/29 00:37:55;;;;;;;6.87;4.00;;;12.80;99.90;;;;;;5033325;28;20516;-66
2023/08/29 00:40:21;;;;;;;11.70;3.20;;;12.70;99.90;;;;;;5036031;28;20357;-66
2023/08/29 00:42:47;;;;;;;5.17;3.30;;;12.80;99.90;;;;;;5038049;28;20251;-66
2023/08/29 00:45:13;;;;;;;7.80;4.23;;;12.80;99.90;;;;;;5032943;28;20206;-66
2023/08/29 00:47:40;;;;;;;7.03;3.73;;;12.70;99.90;;;;;;5038719;28;20726;-66
2023/08/29 00:50:09;;;;;;;6.63;4.23;;;12.80;99.90;;;;;;5045381;28;20186;-66
2023/08/29 00:52:35;;;;;;;7.67;4.37;;;12.80;99.90;;;;;;5039656;28;20920;-66
2023/08/29 00:55:02;;;;;;;8.27;4.57;;;12.80;99.90;;;;;;5039500;28;20448;-66
2023/08/29 00:57:28;;;;;;;6.00;3.87;;;12.80;99.90;;;;;;5049128;28;20524;-65
2023/08/29 00:59:53;;;;;;;9.93;4.70;;;12.80;99.90;;;;;;5045326;28;20443;-65
2023/08/29 01:02:19;;;;;;;6.10;4.13;;;12.90;99.90;;;;;;5037368;28;20178;-65
2023/08/29 01:04:45;;;;;;;8.23;4.60;;;12.90;99.90;;;;;;5051699;28;20577;-65
2023/08/29 01:07:12;;;;;;;5.97;3.87;;;12.90;99.90;;;;;;5031185;28;20216;-66
2023/08/29 01:09:38;;;;;;;9.80;4.77;;;12.90;99.90;;;;;;5034304;28;20182;-66
2023/08/29 01:12:11;;;;;;;4.50;3.60;;;12.90;99.90;;;;;;5038284;28;20412;-66
2023/08/29 01:14:56;;;;;;;9.00;3.80;;;12.90;99.90;;;;;;5026354;28;20441;-66
2023/08/29 01:17:47;;;;;;;7.90;5.20;;;12.90;99.90;;;;;;5038673;28;20413;-66
2023/08/29 01:20:14;;;;;;;9.03;4.57;;;12.90;99.90;;;;;;5042509;28;20885;-66
2023/08/29 01:23:08;;;;;;;6.10;3.73;;;12.90;99.90;;;;;;5044259;28;20421;-66
2023/08/29 01:25:51;;;;;;;7.97;4.63;;;12.90;99.90;;;;;;5048526;28;20540;-66
2023/08/29 01:28:21;;;;;;;6.87;4.60;;;12.90;99.90;;;;;;5034895;28;20486;-66
2023/08/29 01:30:48;;;;;;;6.23;4.00;;;12.90;99.90;;;;;;5035188;28;20433;-66
2023/08/29 01:33:14;;;;;;;7.07;3.67;;;12.80;99.90;;;;;;5039350;28;20417;-66
2023/08/29 01:35:45;;;;;;;15.13;4.37;;;12.90;99.90;;;;;;5044147;28;20773;-66
2023/08/29 01:38:11;;;;;;;4.60;3.30;;;12.90;99.90;;;;;;5037934;28;20174;-66
2023/08/29 01:40:37;;;;;;;6.00;3.80;;;12.90;99.90;;;;;;5041113;28;20456;-66
2023/08/29 01:43:03;;;;;;;8.33;4.50;;;12.90;99.90;;;;;;5037811;28;20182;-66
2023/08/29 01:45:29;;;;;;;8.90;4.20;;;12.80;99.90;;;;;;5042046;28;20460;-66
2023/08/29 01:47:54;;;;;;;9.90;5.13;;;12.80;99.90;;;;;;5049062;28;20512;-66
2023/08/29 01:50:20;;;;;;;6.43;3.93;;;12.90;99.90;;;;;;5035151;28;20190;-66
2023/08/29 01:52:47;;;;;;;6.43;3.90;;;12.80;99.90;;;;;;5036299;28;20233;-66
2023/08/29 01:55:13;;;;;;;7.73;4.80;;;12.80;99.90;;;;;;5037082;28;20425;-66
2023/08/29 01:57:39;;;;;;;10.50;4.83;;;12.80;99.90;;;;;;5050007;28;20427;-66
2023/08/29 02:00:05;;;;;;;8.77;4.80;;;12.80;99.90;;;;;;5042435;28;20191;-66
2023/08/29 02:02:31;;;;;;;7.83;4.90;;;12.80;99.90;;;;;;5037911;28;20193;-66
2023/08/29 02:04:56;;;;;;;6.40;4.20;;;12.80;99.90;;;;;;5051922;28;20486;-66
2023/08/29 02:07:22;;;;;;;7.10;5.10;;;12.80;99.90;;;;;;5042112;28;20181;-66
2023/08/29 02:09:48;;;;;;;11.60;5.10;;;12.70;99.90;;;;;;5049648;28;20596;-66
2023/08/29 02:12:13;;;;;;;6.93;4.50;;;12.70;99.90;;;;;;5034985;28;20178;-66
2023/08/29 02:14:39;;;;;;;12.00;4.83;;;12.70;99.90;;;;;;5027297;28;20190;-66
2023/08/29 02:17:04;;;;;;;9.50;5.20;;;12.60;99.90;;;;;;5036717;28;20175;-66
2023/08/29 02:19:30;;;;;;;11.43;5.40;;;12.60;99.90;;;;;;5042599;28;20216;-66
2023/08/29 02:21:56;;;;;;;7.93;4.93;;;12.70;99.90;;;;;;5041766;28;20201;-66
2023/08/29 02:24:22;;;;;;;5.87;4.00;;;12.60;99.90;;;;;;5051742;28;20233;-66
2023/08/29 02:26:47;;;;;;;6.40;4.47;;;12.70;99.90;;;;;;5036021;28;20261;-66
2023/08/29 02:29:13;;;;;;;7.63;4.83;;;12.70;99.90;;;;;;5037473;28;20178;-66
2023/08/29 02:31:38;;;;;;;8.73;5.40;;;12.70;99.90;;;;;;5033088;28;20185;-66
2023/08/29 02:34:04;;;;;;;7.30;4.80;;;12.70;99.90;;;;;;5034980;28;20190;-66
2023/08/29 02:36:29;;;;;;;10.43;5.70;;;12.80;99.90;;;;;;5046373;28;20303;-66
2023/08/29 02:38:55;;;;;;;10.20;5.70;;;12.70;99.90;;;;;;5040851;28;20201;-66
2023/08/29 02:41:21;;;;;;;7.47;5.00;;;12.70;99.90;;;;;;5034974;28;20277;-66
2023/08/29 02:43:46;;;;;;;8.50;4.70;;;12.70;99.90;;;;;;5033013;28;20210;-66
2023/08/29 02:46:12;;;;;;;11.30;6.30;;;12.70;99.90;;;;;;5046436;28;20182;-66
2023/08/29 02:48:38;;;;;;;8.27;5.27;;;12.70;99.90;;;;;;5051595;28;20182;-66
2023/08/29 02:51:03;;;;;;;9.60;5.70;;;12.70;99.90;;;;;;5041244;28;20198;-66
2023/08/29 02:53:29;;;;;;;7.60;4.80;;;12.80;99.90;;;;;;5039121;28;20205;-66
2023/08/29 02:55:56;;;;;;;10.30;5.33;;;12.80;99.90;;;;;;5037419;28;20528;-66
2023/08/29 02:58:22;;;;;;;10.10;5.47;;;12.80;99.90;;;;;;5030950;28;20954;-66
2023/08/29 03:00:59;;;;;;;7.73;5.30;;;12.80;99.90;;;;;;5027897;28;20498;-66
2023/08/29 03:03:26;;;;;;;6.70;4.40;;;12.70;99.90;;;;;;5042365;28;20192;-66
2023/08/29 03:05:56;;;;;;;7.93;4.70;;;12.80;99.90;;;;;;5039856;28;20434;-66
2023/08/29 03:08:21;;;;;;;16.30;4.90;;;12.80;99.90;;;;;;5043486;28;20761;-66
2023/08/29 03:10:51;;;;;;;7.47;4.77;;;12.80;99.90;;;;;;5037152;28;20427;-66
2023/08/29 03:13:17;;;;;;;10.20;4.77;;;12.80;99.90;;;;;;5031195;28;20187;-66
2023/08/29 03:15:44;;;;;;;10.63;4.90;;;12.80;99.90;;;;;;5037521;28;20868;-66
2023/08/29 03:18:10;;;;;;;9.33;5.00;;;12.80;99.90;;;;;;5030660;28;20485;-66
2023/08/29 03:20:42;;;;;;;10.20;6.07;;;12.80;99.90;;;;;;5039984;28;20420;-66
2023/08/29 03:23:08;;;;;;;7.80;4.80;;;12.80;99.90;;;;;;5050702;28;20542;-66
2023/08/29 03:25:34;;;;;;;7.73;4.93;;;12.80;99.90;;;;;;5045708;28;20992;-66
2023/08/29 03:28:00;;;;;;;11.80;5.60;;;12.80;99.90;;;;;;5030188;28;20492;-66
2023/08/29 03:30:26;;;;;;;9.30;5.80;;;12.80;99.90;;;;;;5034601;28;20190;-66
2023/08/29 03:32:52;;;;;;;10.60;5.50;;;12.80;99.90;;;;;;5043316;28;20529;-66
2023/08/29 03:35:19;;;;;;;9.73;5.43;;;12.70;99.90;;;;;;5041585;28;20436;-66
2023/08/29 03:37:45;;;;;;;11.20;5.67;;;12.80;99.90;;;;;;5047612;28;20197;-66
2023/08/29 03:40:12;;;;;;;9.63;4.97;;;12.80;99.90;;;;;;5039358;28;20444;-66
2023/08/29 03:42:38;;;;;;;7.57;4.77;;;12.80;99.90;;;;;;5030815;28;20473;-66
2023/08/29 03:45:04;;;;;;;8.13;5.30;;;12.80;99.90;;;;;;5036688;28;20479;-67
2023/08/29 03:47:31;;;;;;;8.30;4.93;;;12.70;99.90;;;;;;5048998;28;20432;-67
2023/08/29 03:49:57;;;;;;;10.77;4.80;;;12.70;99.90;;;;;;5034089;28;20192;-67
2023/08/29 03:52:24;;;;;;;7.60;4.83;;;12.70;99.90;;;;;;5042801;28;20784;-67
2023/08/29 03:54:52;;;;;;;9.47;5.27;;;12.70;99.90;;;;;;5036791;28;20670;-67
2023/08/29 03:57:18;;;;;;;7.97;5.30;;;12.70;99.90;;;;;;5033718;28;20433;-67
2023/08/29 03:59:43;;;;;;;15.70;6.37;;;12.70;99.90;;;;;;5034523;28;20971;-65
2023/08/29 04:02:09;;;;;;;8.00;5.27;;;12.70;99.90;;;;;;5030855;28;20194;-65
2023/08/29 04:04:35;;;;;;;13.07;5.73;;;12.80;99.90;;;;;;5041489;28;20225;-65
2023/08/29 04:07:01;;;;;;;11.57;6.77;;;12.70;99.90;;;;;;5045577;28;20181;-65
2023/08/29 04:09:27;;;;;;;14.40;6.60;;;12.80;99.90;;;;;;5054802;28;20802;-65
2023/08/29 04:11:53;;;;;;;17.20;6.33;;;12.80;99.90;;;;;;5039853;28;20465;-65
2023/08/29 04:14:18;;;;;;;8.20;5.13;;;12.80;99.90;;;;;;5028384;28;20191;-65
2023/08/29 04:16:44;;;;;;;13.13;6.47;;;12.70;99.90;;;;;;5031590;28;20186;-65
2023/08/29 04:19:11;;;;;;;17.53;6.53;;;12.70;99.90;;;;;;5041747;28;20299;-65
2023/08/29 04:21:36;;;;;;;13.67;7.40;;;12.70;99.90;;;;;;5043774;28;21082;-65
2023/08/29 04:24:02;;;;;;;8.77;6.20;;;12.70;99.90;;;;;;5041207;28;20467;-65
2023/08/29 04:26:28;;;;;;;11.20;6.50;;;12.70;99.90;;;;;;5038132;28;20191;-65
2023/08/29 04:28:54;;;;;;;11.80;6.57;;;12.60;99.90;;;;;;5033567;28;20192;-65
2023/08/29 04:31:20;;;;;;;10.53;6.17;;;12.60;99.90;;;;;;5033670;28;21000;-65
2023/08/29 04:33:46;;;;;;;15.27;7.30;;;12.60;99.90;;;;;;5040813;28;20213;-65
2023/08/29 04:36:16;;;;;;;12.93;7.57;;;12.80;99.90;;;;;;5047797;28;20888;-65
2023/08/29 04:38:44;;;;;;;10.13;6.70;;;12.70;99.90;;;;;;5053805;28;20194;-65
2023/08/29 04:41:11;;;;;;;12.33;7.07;;;12.70;99.90;;;;;;5041055;28;20483;-65
2023/08/29 04:43:36;;;;;;;10.83;6.40;;;12.70;99.90;;;;;;5037785;28;20428;-65
2023/08/29 04:46:02;;;;;;;14.43;6.80;;;12.70;99.90;;;;;;5063510;28;20431;-65
2023/08/29 04:48:28;;;;;;;10.40;6.70;;;12.60;99.90;;;;;;5052823;28;20299;-65
2023/08/29 04:50:53;;;;;;;13.87;7.07;;;12.60;99.90;;;;;;5051522;28;20186;-65
2023/08/29 04:53:20;;;;;;;12.50;7.60;;;12.60;99.90;;;;;;5040162;28;20244;-65
2023/08/29 04:55:46;;;;;;;11.53;6.10;;;12.60;99.90;;;;;;5034604;28;20218;-65
2023/08/29 04:58:11;;;;;;;14.40;7.73;;;12.60;99.90;;;;;;5033535;28;20898;-65
2023/08/29 05:00:37;;;;;;;9.20;5.30;;;12.60;99.90;;;;;;5039992;28;20214;-65
2023/08/29 05:03:04;;;;;;;11.97;7.50;;;12.60;99.90;;;;;;5054104;28;20179;-65
2023/08/29 05:05:30;;;;;;;10.10;5.90;;;12.60;99.90;;;;;;5032806;28;20682;-65
2023/08/29 05:07:56;;;;;;;13.90;7.50;;;12.60;99.90;;;;;;5038371;28;20425;-65
2023/08/29 05:10:22;;;;;;;15.70;8.03;;;12.60;99.90;;;;;;5037145;28;20878;-65
2023/08/29 05:12:48;;;;;;;11.93;6.60;;;12.60;99.90;;;;;;5045657;28;20198;-65
2023/08/29 05:15:16;;;;;;;10.37;6.93;;;12.60;99.90;;;;;;5030659;28;20217;-65
2023/08/29 05:17:41;;;;;;;18.27;8.30;;;12.60;99.90;;;;;;5033369;28;20214;-65
2023/08/29 05:20:09;;;;;;;12.07;6.90;;;12.60;99.90;;;;;;5038347;28;20489;-65
2023/08/29 05:22:35;;;;;;;12.20;7.20;;;12.70;99.90;;;;;;5047167;28;20190;-65
2023/08/29 05:25:03;;;;;;;11.50;6.73;;;12.60;99.90;;;;;;5043245;28;20472;-65
2023/08/29 05:27:29;;;;;;;14.20;7.63;;;12.60;99.90;;;;;;5030362;28;20524;-65
2023/08/29 05:29:54;;;;;;;14.47;7.40;;;12.60;99.90;;;;;;5039588;28;20512;-65
2023/08/29 05:32:20;;;;;;;13.00;7.80;;;12.70;99.90;;;;;;5040283;28;20181;-65
2023/08/29 05:34:46;;;;;;;13.07;8.13;;;12.70;99.90;;;;;;5052332;28;20197;-65
2023/08/29 05:37:11;;;;;;;13.27;7.10;;;12.70;99.90;;;;;;5042029;28;20437;-65
2023/08/29 05:39:37;;;;;;;13.10;8.27;;;12.70;99.90;;;;;;5042717;28;20207;-65
2023/08/29 05:42:03;;;;;;;16.10;8.17;;;12.70;99.90;;;;;;5051468;28;20570;-65
2023/08/29 05:44:28;;;;;;;14.07;7.73;;;12.70;99.90;;;;;;5034884;28;20293;-65
2023/08/29 05:46:54;;;;;;;14.83;9.00;;;12.80;99.90;;;;;;5039927;28;20851;-65
2023/08/29 05:49:20;;;;;;;15.07;8.60;;;12.80;99.90;;;;;;5048857;28;20201;-65
2023/08/29 05:51:45;;;;;;;16.70;8.67;;;12.80;99.90;;;;;;5052902;28;20595;-66
2023/08/29 05:54:11;;;;;;;12.83;8.40;;;12.80;99.90;;;;;;5037606;28;20783;-65
2023/08/29 05:56:37;;;;;;;12.93;9.13;;;12.80;99.90;;;;;;5045561;28;20247;-65
2023/08/29 05:59:04;;;;;;;16.53;9.10;;;12.80;99.90;;;;;;5038976;28;20182;-65
2023/08/29 06:01:29;;;;;;;19.00;9.17;;;12.90;99.90;;;;;;5050365;28;20554;-65
2023/08/29 06:03:55;;;;;;;17.30;8.37;;;12.90;99.90;;;;;;5041850;28;21148;-65
2023/08/29 06:06:21;;;;;;;20.37;9.90;;;13.00;99.90;;;;;;5047025;28;20182;-65
2023/08/29 06:08:47;;;;;;;14.77;9.27;;;12.90;99.90;;;;;;5041300;28;20194;-65
2023/08/29 06:11:13;;;;;;;13.80;7.97;;;12.90;99.90;;;;;;5034428;28;20890;-65
2023/08/29 06:13:39;;;;;;;12.07;8.30;;;12.90;99.90;;;;;;5033602;28;20178;-65
2023/08/29 06:16:04;;;;;;;16.87;9.07;;;12.90;99.90;;;;;;5026417;28;20437;-65
2023/08/29 06:18:32;;;;;;;12.97;8.40;;;12.90;99.90;;;;;;5032985;28;20280;-65
2023/08/29 06:20:58;;;;;;;13.30;8.13;;;12.90;99.90;;;;;;5039981;28;20177;-65
2023/08/29 06:23:24;;;;;;;11.00;7.00;;;12.90;99.90;;;;;;5033989;28;20428;-65
2023/08/29 06:25:50;;;;;;;13.47;8.47;;;12.90;99.90;;;;;;5042161;28;20182;-65
2023/08/29 06:28:15;;;;;;;14.90;8.37;;;12.90;99.90;;;;;;5033373;28;20179;-65
2023/08/29 06:30:41;;;;;;;18.43;7.60;;;12.90;99.90;;;;;;5043822;28;20598;-66
2023/08/29 06:33:06;;;;;;;15.80;9.37;;;12.90;99.90;;;;;;5051903;28;20201;-66
2023/08/29 06:35:39;;;;;;;13.77;8.37;;;12.80;99.90;;;;;;5036479;28;20700;-66
2023/08/29 06:38:06;;;;;;;14.00;8.07;;;12.80;99.90;;;;;;5037995;28;20186;-65
2023/08/29 06:40:31;;;;;;;17.60;8.87;;;12.80;99.90;;;;;;5039407;28;20441;-65
2023/08/29 06:42:57;;;;;;;15.60;8.60;;;12.80;99.90;;;;;;5040098;28;20748;-65
2023/08/29 06:45:23;;;;;;;17.47;10.17;;;12.80;99.90;;;;;;5042647;28;20201;-65
2023/08/29 06:47:48;;;;;;;16.83;9.90;;;12.80;99.90;;;;;;5040022;28;20208;-65
2023/08/29 06:50:15;;;;;;;15.73;9.00;;;12.80;99.90;;;;;;5041434;28;20173;-65
2023/08/29 06:52:41;;;;;;;18.50;8.43;;;12.80;99.90;;;;;;5022900;28;20572;-67
2023/08/29 06:55:09;;;;;;;17.73;9.30;;;12.70;99.90;;;;;;5037110;28;20465;-65
2023/08/29 06:57:35;;;;;;;15.33;9.23;;;12.80;99.90;;;;;;5027741;28;20561;-65
2023/08/29 07:00:00;;;;;;;13.20;7.60;;;12.80;99.90;;;;;;5056725;28;20435;-65
2023/08/29 07:02:26;;;;;;;14.13;8.77;;;12.90;99.90;;;;;;5049515;28;20193;-65
2023/08/29 07:04:52;;;;;;;23.90;7.97;;;12.90;99.90;;;;;;5046565;28;20202;-65
2023/08/29 07:07:17;;;;;;;14.50;7.87;;;13.00;99.90;;;;;;5032851;28;20178;-65
2023/08/29 07:09:43;;;;;;;14.67;7.70;;;13.00;99.90;;;;;;5030983;28;20222;-65
2023/08/29 07:12:09;;;;;;;11.47;7.27;;;13.00;99.90;;;;;;5027727;28;20572;-65
2023/08/29 07:14:35;;;;;;;15.20;7.80;;;13.00;99.90;;;;;;5031801;28;20433;-65
2023/08/29 07:17:01;;;;;;;16.60;7.37;;;13.00;99.90;;;;;;5046010;28;20564;-65
2023/08/29 07:19:28;;;;;;;21.13;9.30;;;12.90;99.90;;;;;;5034024;28;20463;-65
2023/08/29 07:21:54;;;;;;;10.93;7.50;;;13.00;99.90;;;;;;5033296;28;20643;-65
2023/08/29 07:24:19;;;;;;;13.90;7.87;;;13.00;99.90;;;;;;5034034;28;20496;-65
2023/08/29 07:26:45;;;;;;;13.20;7.53;;;13.00;99.90;;;;;;5031447;28;20257;-65
2023/08/29 07:29:11;;;;;;;17.97;7.67;;;13.00;99.90;;;;;;5034259;28;20254;-66
2023/08/29 07:31:36;;;;;;;21.13;8.23;;;13.00;99.90;;;;;;5045664;28;20185;-65
2023/08/29 07:34:02;;;;;;;15.20;7.63;;;12.90;99.90;;;;;;5041670;28;20324;-65
2023/08/29 07:36:27;;;;;;;11.07;6.80;;;13.00;99.90;;;;;;5036413;28;20186;-65
2023/08/29 07:38:53;;;;;;;12.10;7.13;;;13.00;99.90;;;;;;5036070;28;20258;-65
2023/08/29 07:41:19;;;;;;;13.40;8.30;;;12.90;99.90;;;;;;5029626;28;20647;-65
2023/08/29 07:43:44;;;;;;;14.43;8.97;;;12.90;99.90;;;;;;5034195;28;20186;-65
2023/08/29 07:46:10;;;;;;;13.17;8.47;;;12.90;99.90;;;;;;5032293;28;20646;-65
2023/08/29 07:48:35;;;;;;;20.63;8.20;;;12.90;99.90;;;;;;5039533;28;20190;-65
2023/08/29 07:51:01;;;;;;;14.80;7.60;;;12.90;99.90;;;;;;5033769;28;20182;-65
2023/08/29 07:53:27;;;;;;;10.10;6.73;;;13.00;99.90;;;;;;5040562;28;20190;-65
2023/08/29 07:55:53;;;;;;;10.87;6.70;;;13.00;99.90;;;;;;5039072;28;20659;-65
2023/08/29 07:58:18;;;;;;;12.80;7.40;;;13.10;99.90;;;;;;5041346;28;20437;-65
2023/08/29 08:00:44;;;;;;;9.63;7.10;;;13.10;99.90;;;;;;5046138;28;20189;-65
2023/08/29 08:03:10;;;;;;;11.87;7.03;;;13.10;99.90;;;;;;5050316;28;20273;-65
2023/08/29 08:05:35;;;;;;;19.37;8.90;;;13.20;99.90;;;;;;5050671;28;20236;-65
2023/08/29 08:08:01;;;;;;;16.27;9.13;;;13.20;99.90;;;;;;5045535;28;20194;-65
2023/08/29 08:10:27;;;;;;;19.13;7.30;;;13.20;99.90;;;;;;5029949;28;20186;-65
2023/08/29 08:12:52;;;;;;;12.60;8.57;;;13.20;99.90;;;;;;5032971;28;20174;-66
2023/08/29 08:15:19;;;;;;;10.97;7.80;;;13.20;99.90;;;;;;5027718;28;20189;-65
2023/08/29 08:17:45;;;;;;;13.37;8.57;;;13.20;99.90;;;;;;5040708;28;20216;-65
2023/08/29 08:20:12;;;;;;;11.37;7.90;;;13.20;99.90;;;;;;5035055;28;20964;-65
2023/08/29 08:22:40;;;;;;;16.73;7.80;;;13.20;99.90;;;;;;5034003;28;20444;-65
2023/08/29 08:25:07;;;;;;;15.77;8.90;;;13.20;99.90;;;;;;5044782;28;20456;-65
2023/08/29 08:27:34;;;;;;;14.00;9.53;;;13.30;99.90;;;;;;5030294;28;20451;-65
2023/08/29 08:30:00;;;;;;;14.13;8.90;;;13.30;99.90;;;;;;5038367;28;20449;-65
2023/08/29 08:32:25;;;;;;;13.40;8.17;;;13.30;99.90;;;;;;5031482;28;20552;-65
2023/08/29 08:34:51;;;;;;;14.57;8.83;;;13.40;99.90;;;;;;5037121;28;20183;-65
2023/08/29 08:37:17;;;;;;;15.13;8.83;;;13.40;99.90;;;;;;5050340;28;20590;-65
2023/08/29 08:39:43;;;;;;;20.47;9.17;;;13.40;99.90;;;;;;5038301;28;20765;-65
2023/08/29 08:42:14;;;;;;;13.23;9.87;;;13.40;99.90;;;;;;5030586;28;20186;-65
2023/08/29 08:44:40;;;;;;;15.50;10.20;;;13.40;99.90;;;;;;5029844;28;20197;-65
2023/08/29 08:47:06;;;;;;;15.00;8.17;;;13.40;99.90;;;;;;5037189;28;20425;-65
2023/08/29 08:49:33;;;;;;;15.57;8.97;;;13.40;99.90;;;;;;5050415;28;20412;-65
2023/08/29 08:51:59;;;;;;;14.10;9.70;;;13.50;99.90;;;;;;5033376;28;20179;-65
2023/08/29 08:54:25;;;;;;;12.13;8.80;;;13.50;99.90;;;;;;5037696;28;20790;-65
2023/08/29 08:56:51;;;;;;;16.53;9.10;;;13.50;99.90;;;;;;5046930;28;20435;-65
2023/08/29 08:59:18;;;;;;;15.30;9.30;;;13.60;99.90;;;;;;5054445;28;20211;-65
2023/08/29 09:01:44;;;;;;;16.87;8.57;;;13.60;99.90;;;;;;5042505;28;20464;-65
2023/08/29 09:04:09;;;;;;;17.20;9.10;;;13.50;99.90;;;;;;5041556;28;20554;-65
2023/08/29 09:06:38;;;;;;;16.03;9.10;;;13.60;99.90;;;;;;5047575;28;20425;-65
2023/08/29 09:09:21;;;;;;;16.00;9.03;;;13.50;99.90;;;;;;5039992;28;20171;-65
2023/08/29 09:11:55;;;;;;;16.70;8.87;;;13.60;99.90;;;;;;5042298;28;21120;-65
2023/08/29 09:14:21;;;;;;;14.93;9.17;;;13.50;99.90;;;;;;5029325;28;20432;-65
2023/08/29 09:17:01;;;;;;;18.90;9.17;;;13.60;99.90;;;;;;5052897;28;20435;-65
2023/08/29 09:19:29;;;;;;;13.17;8.57;;;13.60;99.90;;;;;;5036774;28;20413;-65
2023/08/29 09:21:55;;;;;;;15.57;8.63;;;13.70;99.90;;;;;;5039388;28;20444;-65
2023/08/29 09:24:36;;;;;;;15.77;9.67;;;13.80;99.90;;;;;;5029066;28;20465;-65
2023/08/29 09:27:09;;;;;;;14.00;7.90;;;13.80;99.90;;;;;;5032144;28;20181;-65
2023/08/29 09:29:35;;;;;;;13.93;8.67;;;13.80;99.90;;;;;;5038687;28;20480;-65
2023/08/29 09:32:12;;;;;;;12.50;8.37;;;13.80;99.90;;;;;;5045860;28;20425;-65
2023/08/29 09:34:37;;;;;;;16.30;9.43;;;13.80;99.90;;;;;;5033804;28;20977;-65
2023/08/29 09:37:03;;;;;;;16.70;8.97;;;13.80;99.90;;;;;;5032798;28;20532;-65
2023/08/29 09:39:29;;;;;;;12.27;7.80;;;13.90;99.90;;;;;;5037661;28;20293;-65
2023/08/29 09:42:04;;;;;;;25.03;9.17;;;13.90;99.90;;;;;;5049991;28;20435;-65
2023/08/29 09:44:39;;;;;;;14.00;8.07;;;14.00;99.90;;;;;;5040207;28;20692;-65
2023/08/29 09:47:05;;;;;;;13.03;7.77;;;14.00;99.90;;;;;;5034402;28;20460;-65
2023/08/29 09:49:51;;;;;;;13.30;8.30;;;14.00;99.90;;;;;;5034077;28;20481;-65
2023/08/29 09:52:18;;;;;;;10.73;6.83;;;14.00;99.90;;;;;;5033510;28;20232;-65
2023/08/29 09:54:52;;;;;;;16.80;6.40;;;14.10;99.90;;;;;;5034396;28;20449;-65
2023/08/29 09:57:19;;;;;;;13.83;8.47;;;14.20;99.90;;;;;;5030802;28;20456;-65
2023/08/29 09:59:46;;;;;;;11.17;7.47;;;14.20;99.90;;;;;;5041927;28;20478;-65
2023/08/29 10:02:14;;;;;;;10.00;6.70;;;14.30;99.90;;;;;;5024866;28;20565;-65
2023/08/29 10:04:54;;;;;;;10.10;6.80;;;14.30;99.90;;;;;;5041435;28;20970;-65
2023/08/29 10:07:28;;;;;;;9.27;6.70;;;14.40;99.90;;;;;;5051110;28;20432;-64
2023/08/29 10:09:54;;;;;;;8.23;5.97;;;14.60;99.90;;;;;;5040330;28;20980;-65
2023/08/29 10:12:21;;;;;;;9.83;7.43;;;14.70;99.90;;;;;;5037949;28;20421;-65
2023/08/29 10:14:47;;;;;;;11.03;6.30;;;14.70;99.90;;;;;;5034960;28;20437;-65
2023/08/29 10:17:13;;;;;;;8.00;5.33;;;14.80;99.90;;;;;;5038424;28;20428;-65
2023/08/29 10:19:41;;;;;;;8.90;5.90;;;14.90;99.90;;;;;;5039143;28;20428;-65
2023/08/29 10:22:07;;;;;;;7.00;4.97;;;14.90;99.90;;;;;;5032654;28;20417;-65
2023/08/29 10:24:36;;;;;;;9.03;5.33;;;14.80;99.90;;;;;;5036454;28;20466;-65
2023/08/29 10:27:02;;;;;;;9.90;6.40;;;15.00;99.90;;;;;;5032082;28;20910;-65
2023/08/29 10:29:29;;;;;;;8.07;5.10;;;15.10;99.90;;;;;;5032667;28;20426;-65
2023/08/29 10:31:55;;;;;;;8.20;4.43;;;15.10;99.90;;;;;;5043064;28;20428;-65
2023/08/29 10:34:21;;;;;;;6.07;4.27;;;15.10;99.90;;;;;;5031929;28;20413;-65
2023/08/29 10:36:46;;;;;;;7.57;4.40;;;15.20;99.90;;;;;;5032875;28;21025;-65
2023/08/29 10:39:13;;;;;;;8.43;4.30;;;15.30;99.90;;;;;;5026613;28;20185;-65
2023/08/29 10:41:46;;;;;;;9.93;5.13;;;15.20;99.90;;;;;;5026399;28;20229;-65
2023/08/29 10:44:40;;;;;;;6.80;4.20;;;15.10;99.90;;;;;;5024029;28;20464;-65
2023/08/29 10:47:28;;;;;;;15.90;5.13;;;14.90;99.90;;;;;;5026388;28;20419;-65
2023/08/29 10:49:58;;;;;;;7.60;4.90;;;14.70;99.90;;;;;;5027216;28;20788;-65
2023/08/29 10:52:23;;;;;;;11.80;6.60;;;14.70;99.90;;;;;;5024832;28;20931;-65
2023/08/29 10:55:08;;;;;;;9.90;6.40;;;14.50;99.90;;;;;;5026429;28;20460;-65
2023/08/29 10:57:34;;;;;;;27.53;6.47;;;14.40;99.90;;;;;;5026746;28;20362;-65
2023/08/29 10:59:59;;;;;;;9.00;5.93;;;14.30;99.90;;;;;;5025257;28;20532;-65
2023/08/29 11:02:30;;;;;;;7.77;5.80;;;14.30;99.90;;;;;;5030185;28;20193;-65
2023/08/29 11:05:04;;;;;;;13.70;7.50;;;14.30;99.90;;;;;;5026192;28;20218;-65
2023/08/29 11:07:31;;;;;;;11.40;6.97;;;14.20;99.90;;;;;;5035165;28;20448;-65
2023/08/29 11:10:22;;;;;;;9.97;6.90;;;14.20;99.90;;;;;;5031034;28;20451;-65
2023/08/29 11:13:07;;;;;;;15.43;8.30;;;14.30;99.90;;;;;;5036883;28;20451;-65
2023/08/29 11:15:51;;;;;;;11.57;7.57;;;14.30;99.90;;;;;;5033055;28;20424;-65
2023/08/29 11:18:24;;;;;;;11.90;8.23;;;14.30;99.90;;;;;;5025028;28;20436;-65
2023/08/29 11:20:51;;;;;;;9.10;6.93;;;14.40;99.90;;;;;;5032852;28;20828;-65
2023/08/29 11:23:17;;;;;;;11.77;7.50;;;14.50;99.90;;;;;;5040888;28;20447;-65
2023/08/29 11:25:42;;;;;;;14.60;7.80;;;14.50;99.90;;;;;;5044046;28;20465;-65
2023/08/29 11:28:08;;;;;;;10.20;7.03;;;14.50;99.90;;;;;;5028158;28;20764;-65
2023/08/29 11:30:34;;;;;;;9.80;7.43;;;14.60;99.90;;;;;;5034493;28;20183;-64
2023/08/29 11:33:03;;;;;;;11.80;7.87;;;14.70;99.90;;;;;;5035065;28;20185;-64
2023/08/29 11:35:29;;;;;;;13.40;7.90;;;14.70;99.90;;;;;;5034539;28;20428;-65
2023/08/29 11:37:54;;;;;;;12.70;8.83;;;14.70;99.90;;;;;;5027964;28;20539;-65
2023/08/29 11:40:21;;;;;;;16.83;9.10;;;14.60;99.90;;;;;;5039821;28;20228;-65
2023/08/29 11:42:47;;;;;;;11.90;7.97;;;14.60;99.90;;;;;;5036767;28;20210;-65
2023/08/29 11:45:15;;;;;;;13.20;8.10;;;14.60;99.90;;;;;;5050238;28;20452;-64
2023/08/29 11:47:41;;;;;;;16.37;9.70;;;14.70;99.90;;;;;;5035605;28;20825;-65
2023/08/29 11:50:07;;;;;;;11.70;8.33;;;14.70;99.90;;;;;;5035655;28;20419;-65
2023/08/29 11:52:33;;;;;;;12.10;7.67;;;14.70;99.90;;;;;;5040614;28;20480;-65
2023/08/29 11:55:01;;;;;;;9.40;7.30;;;14.80;99.90;;;;;;5036525;28;20447;-65
2023/08/29 11:57:30;;;;;;;12.00;7.33;;;14.80;99.90;;;;;;5045996;28;20182;-65
2023/08/29 11:59:59;;;;;;;11.90;7.50;;;14.90;99.90;;;;;;5042563;28;20448;-65
2023/08/29 12:02:26;;;;;;;10.53;7.20;;;14.90;99.90;;;;;;5035850;28;20477;-65
2023/08/29 12:04:56;;;;;;;15.37;8.40;;;15.00;99.90;;;;;;5043340;28;20945;-65
2023/08/29 12:07:22;;;;;;;11.60;6.83;;;15.00;99.90;;;;;;5038407;28;20901;-65
2023/08/29 12:09:51;;;;;;;9.87;6.90;;;15.10;99.90;;;;;;5051165;28;20499;-65
2023/08/29 12:12:35;;;;;;;9.90;6.43;;;15.10;99.90;;;;;;5049047;28;20432;-65
2023/08/29 12:15:05;;;;;;;11.23;7.57;;;15.00;99.90;;;;;;5030849;28;20519;-65
2023/08/29 12:17:57;;;;;;;12.53;8.17;;;15.00;99.90;;;;;;5028942;28;20429;-66
2023/08/29 12:20:23;;;;;;;8.93;6.63;;;14.90;99.90;;;;;;5037564;28;20524;-64
2023/08/29 12:22:50;;;;;;;13.37;7.63;;;14.70;99.90;;;;;;5030967;28;20540;-65
2023/08/29 12:25:16;;;;;;;11.13;7.03;;;14.60;99.90;;;;;;5035982;28;20208;-65
2023/08/29 12:27:44;;;;;;;11.10;8.00;;;14.50;99.90;;;;;;5029846;28;20444;-65
2023/08/29 12:30:14;;;;;;;15.10;8.80;;;14.50;99.90;;;;;;5039590;28;20440;-65
2023/08/29 12:32:46;;;;;;;11.10;7.60;;;14.50;99.90;;;;;;5045110;28;20412;-65
2023/08/29 12:35:17;;;;;;;13.53;8.60;;;14.50;99.90;;;;;;5045143;28;20417;-65
2023/08/29 12:37:43;;;;;;;13.20;8.50;;;14.50;99.90;;;;;;5050996;28;20466;-65
2023/08/29 12:40:08;;;;;;;16.97;8.20;;;14.60;99.90;;;;;;5043386;28;20928;-65
2023/08/29 12:42:37;;;;;;;10.43;7.57;;;14.60;99.90;;;;;;5046731;28;20208;-66